Terminal Aerodrome Forecast
Issued by NWS

Home | Current Version | Previous Version | Text Only | Print | Product List | Glossary On
Versions: 1 2 3 4 5 6 7 8 9 10 11 12 13 14 15 16 17 18
000
FTUS44 KLZK 312324
TAFHRO
TAF
KHRO 312324Z 0100/0124 35006KT P6SM VCTS SCT060CB BKN120
      TEMPO 0109/0113 5SM BR BKN010
     FM011300 03005KT 5SM BR VCSH SCT005 BKN010
     FM011600 04005KT P6SM VCSH SCT025 BKN050=

USA.gov is the U.S. government's official web portal to all federal, state and local government web resources and services.